createdAt,value
2018-04-10T00:00:56.326Z,62.70
2018-04-10T00:03:24.526Z,62.80
2018-04-10T00:05:51.986Z,62.70
2018-04-10T00:08:19.412Z,62.90
2018-04-10T00:10:47.641Z,63.10
2018-04-10T00:13:15.080Z,63.10
2018-04-10T00:15:42.558Z,63.20
2018-04-10T00:18:09.993Z,63.40
2018-04-10T00:20:37.427Z,63.40
2018-04-10T00:23:04.864Z,64.30
2018-04-10T00:25:33.060Z,63.40
2018-04-10T00:28:00.499Z,63.30
2018-04-10T00:30:28.700Z,63.50
2018-04-10T00:32:56.155Z,63.50
2018-04-10T00:35:23.596Z,63.60
2018-04-10T00:37:51.056Z,63.90
2018-04-10T00:40:18.495Z,64.00
2018-04-10T00:42:46.702Z,64.10
2018-04-10T00:45:14.134Z,64.10
2018-04-10T00:47:41.719Z,64.00
2018-04-10T00:50:09.165Z,64.90
2018-04-10T00:52:36.595Z,65.10
2018-04-10T00:55:04.808Z,65.10
2018-04-10T00:57:32.253Z,65.00
2018-04-10T00:59:59.691Z,65.10
2018-04-10T01:02:27.147Z,65.00
2018-04-10T01:04:54.605Z,64.50
2018-04-10T01:07:22.043Z,64.50
2018-04-10T01:09:50.238Z,64.60
2018-04-10T01:12:17.703Z,64.60
2018-04-10T01:14:45.151Z,64.90
2018-04-10T01:17:12.583Z,65.40
2018-04-10T01:19:40.814Z,66.10
2018-04-10T01:22:08.268Z,66.10
2018-04-10T01:24:35.703Z,67.20
2018-04-10T01:27:03.160Z,67.70
2018-04-10T01:29:30.604Z,67.60
2018-04-10T01:31:58.060Z,67.60
2018-04-10T01:34:25.505Z,68.70
2018-04-10T01:36:53.703Z,69.60
2018-04-10T01:39:21.140Z,69.50
2018-04-10T01:41:48.569Z,69.40
2018-04-10T01:44:16.788Z,69.70
2018-04-10T01:46:44.236Z,69.70
2018-04-10T01:49:11.680Z,69.60
2018-04-10T01:51:39.129Z,69.70
2018-04-10T01:54:06.587Z,70.80
2018-04-10T01:56:34.786Z,71.10
2018-04-10T01:59:02.237Z,71.00
2018-04-10T02:01:29.685Z,70.80
2018-04-10T02:03:57.132Z,71.10
2018-04-10T02:06:24.572Z,71.20
2018-04-10T02:08:52.789Z,71.10
2018-04-10T02:11:20.231Z,71.10
2018-04-10T02:13:47.682Z,71.30
2018-04-10T02:16:15.124Z,71.40
2018-04-10T02:18:43.333Z,71.70
2018-04-10T02:21:11.544Z,72.20
2018-04-10T02:23:38.979Z,72.20
2018-04-10T02:26:06.463Z,72.10
2018-04-10T02:28:33.888Z,72.20
2018-04-10T02:31:01.349Z,72.50
2018-04-10T02:33:28.798Z,72.60
2018-04-10T02:35:56.244Z,72.40
2018-04-10T02:38:23.709Z,73.10
2018-04-10T02:40:51.146Z,73.20
2018-04-10T02:43:18.576Z,73.50
2018-04-10T02:45:46.012Z,73.90
2018-04-10T02:48:14.230Z,73.60
2018-04-10T02:50:41.665Z,73.60
2018-04-10T02:53:09.127Z,74.00
2018-04-10T02:55:36.554Z,73.60
2018-04-10T02:58:04.756Z,74.40
2018-04-10T03:00:32.204Z,74.40
2018-04-10T03:02:59.640Z,74.50
2018-04-10T03:05:27.853Z,74.70
2018-04-10T03:07:55.288Z,74.70
2018-04-10T03:10:22.728Z,75.20
2018-04-10T03:12:50.936Z,75.90
2018-04-10T03:15:18.383Z,75.90
2018-04-10T03:17:45.815Z,75.80
2018-04-10T03:20:14.025Z,76.70
2018-04-10T03:22:41.464Z,76.80
2018-04-10T03:25:08.927Z,76.90
2018-04-10T03:27:36.369Z,77.20
2018-04-10T03:30:03.837Z,77.40
2018-04-10T03:32:31.267Z,77.80
2018-04-10T03:35:00.132Z,78.00
2018-04-10T03:37:27.580Z,77.90
2018-04-10T03:39:55.012Z,78.20
2018-04-10T03:42:22.448Z,78.30
2018-04-10T03:44:49.899Z,78.10
2018-04-10T03:47:17.328Z,78.10
2018-04-10T03:49:45.527Z,78.30
2018-04-10T03:52:12.989Z,78.20
2018-04-10T03:54:40.412Z,78.20
2018-04-10T03:57:08.621Z,78.80
2018-04-10T03:59:36.058Z,78.70
2018-04-10T04:02:04.301Z,79.10
2018-04-10T04:04:31.740Z,79.70
2018-04-10T04:06:59.175Z,80.00
2018-04-10T04:09:26.628Z,80.00
2018-04-10T04:11:54.054Z,80.00
2018-04-10T04:14:21.503Z,80.00
2018-04-10T05:00:41.673Z,80.30
2018-04-10T05:03:09.104Z,80.00
2018-04-10T05:05:37.308Z,80.10
2018-04-10T05:08:04.770Z,80.80
2018-04-10T05:10:32.201Z,80.00
2018-04-10T05:12:59.643Z,79.80
2018-04-10T05:15:27.853Z,79.00
2018-04-10T05:17:56.165Z,79.00
2018-04-10T05:20:23.606Z,78.60
2018-04-10T05:22:51.047Z,77.80
2018-04-10T05:25:18.487Z,77.10
2018-04-10T05:27:45.944Z,76.60
2018-04-10T05:30:13.375Z,76.50
2018-04-10T05:32:40.824Z,76.00
2018-04-10T05:35:09.029Z,75.00
2018-04-10T05:37:36.472Z,75.00
2018-04-10T05:40:03.906Z,74.60
2018-04-10T05:42:32.119Z,74.20
2018-04-10T05:44:59.569Z,74.10
2018-04-10T05:47:26.996Z,73.90
2018-04-10T05:49:55.247Z,73.10
2018-04-10T05:52:22.688Z,72.90
2018-04-10T05:54:50.123Z,72.80
2018-04-10T05:57:17.567Z,72.40
2018-04-10T05:59:45.032Z,71.60
2018-04-10T06:02:12.472Z,71.00
2018-04-10T06:04:40.770Z,70.50
2018-04-10T06:07:08.208Z,69.80
2018-04-10T06:09:35.648Z,68.70
2018-04-10T06:12:03.088Z,68.00
2018-04-10T06:14:31.293Z,67.60
2018-04-10T06:16:58.745Z,67.50
2018-04-10T06:19:26.176Z,67.50
2018-04-10T06:21:54.380Z,66.50
2018-04-10T06:24:21.840Z,66.50
2018-04-10T06:26:49.304Z,66.70
2018-04-10T06:29:16.751Z,65.40
2018-04-10T06:31:44.223Z,65.00
2018-04-10T06:34:11.624Z,64.30
2018-04-10T06:36:39.836Z,64.40
2018-04-10T06:39:07.259Z,64.30
2018-04-10T06:41:35.464Z,64.60
2018-04-10T06:44:02.970Z,64.60
2018-04-10T06:46:30.404Z,64.00
2018-04-10T06:48:57.847Z,64.40
2018-04-10T06:51:25.322Z,64.50
2018-04-10T06:53:52.756Z,63.90
2018-04-10T06:56:20.204Z,64.00
2018-04-10T06:58:47.644Z,63.10
2018-04-10T07:01:15.085Z,62.60
2018-04-10T07:03:42.528Z,62.20
2018-04-10T07:06:10.738Z,62.70
2018-04-10T07:08:38.169Z,62.70
2018-04-10T07:11:05.612Z,62.10
2018-04-10T07:13:33.821Z,62.00
2018-04-10T07:16:01.269Z,62.00
2018-04-10T07:18:28.704Z,61.60
2018-04-10T07:20:56.931Z,60.70
2018-04-10T07:23:24.357Z,60.60
2018-04-10T07:25:51.828Z,60.40
2018-04-10T07:28:19.311Z,60.80
2018-04-10T07:30:46.707Z,60.00
2018-04-10T07:33:14.161Z,60.10
2018-04-10T07:35:43.234Z,59.20
2018-04-10T07:38:10.664Z,59.20
2018-04-10T07:40:38.709Z,59.20
2018-04-10T07:43:06.155Z,59.50
2018-04-10T07:45:33.589Z,59.20
2018-04-10T07:48:01.797Z,58.60
2018-04-10T07:50:29.401Z,58.60
2018-04-10T07:52:56.844Z,58.70
2018-04-10T07:55:24.291Z,58.80
2018-04-10T07:57:51.759Z,58.00
2018-04-10T08:00:19.190Z,58.10
2018-04-10T08:02:46.640Z,57.40
2018-04-10T08:05:14.080Z,57.00
2018-04-10T08:07:41.519Z,57.40
2018-04-10T08:10:08.960Z,57.30
2018-04-10T08:12:37.166Z,57.00
2018-04-10T08:15:04.593Z,56.90
2018-04-10T08:17:32.800Z,56.60
2018-04-10T08:20:00.232Z,56.60
2018-04-10T08:22:27.667Z,56.30
2018-04-10T08:24:55.864Z,55.90
2018-04-10T08:27:23.305Z,55.90
2018-04-10T08:29:51.513Z,55.00
2018-04-10T08:32:18.948Z,55.00
2018-04-10T08:34:46.384Z,55.00
2018-04-10T08:37:14.597Z,55.10
2018-04-10T08:39:42.032Z,55.10
2018-04-10T08:42:09.485Z,55.30
2018-04-10T08:44:36.937Z,54.80
2018-04-10T08:47:04.395Z,54.90
2018-04-10T08:49:31.849Z,54.70
2018-04-10T08:51:59.293Z,54.80
2018-04-10T08:54:27.496Z,54.20
2018-04-10T08:56:54.981Z,54.10
2018-04-10T08:59:22.402Z,53.90
2018-04-10T09:01:49.890Z,53.60
2018-04-10T09:04:17.323Z,53.20
2018-04-10T09:06:44.774Z,52.00
2018-04-10T09:09:12.205Z,51.60
2018-04-10T09:11:40.416Z,52.10
2018-04-10T09:14:07.858Z,52.10
2018-04-10T09:16:35.291Z,51.70
2018-04-10T09:19:04.144Z,51.00
2018-04-10T09:21:31.585Z,51.00
2018-04-10T09:23:59.032Z,52.00
2018-04-10T09:26:26.472Z,52.10
2018-04-10T09:28:53.923Z,52.20
2018-04-10T09:31:21.364Z,51.60
2018-04-10T09:33:48.804Z,51.40
2018-04-10T09:36:17.025Z,51.10
2018-04-10T09:38:45.012Z,51.00
2018-04-10T09:41:12.448Z,50.40
2018-04-10T09:43:39.901Z,50.50
2018-04-10T09:46:07.330Z,50.40
2018-04-10T09:48:35.694Z,50.80
2018-04-10T09:51:03.910Z,50.90
2018-04-10T09:53:31.353Z,50.90
2018-04-10T09:55:58.808Z,51.10
2018-04-10T09:58:26.251Z,50.80
2018-04-10T10:00:53.742Z,50.60
2018-04-10T10:03:21.183Z,51.00
2018-04-10T10:05:48.622Z,51.20
2018-04-10T10:08:16.065Z,50.90
2018-04-10T10:10:44.272Z,50.60
2018-04-10T10:13:11.729Z,50.60
2018-04-10T10:15:39.173Z,51.00
2018-04-10T10:18:06.605Z,50.80
2018-04-10T10:20:34.070Z,51.50
2018-04-10T10:23:01.519Z,51.80
2018-04-10T10:25:29.728Z,50.40
2018-04-10T10:27:57.177Z,50.40
2018-04-10T10:30:24.609Z,50.10
2018-04-10T10:32:52.055Z,50.20
2018-04-10T10:35:20.264Z,50.60
2018-04-10T10:37:47.701Z,50.60
2018-04-10T10:40:15.980Z,50.70
2018-04-10T10:42:43.412Z,50.10
2018-04-10T10:45:11.631Z,50.70
2018-04-10T10:47:39.119Z,50.60
2018-04-10T10:50:06.575Z,50.90
2018-04-10T10:52:34.013Z,50.80
2018-04-10T10:55:01.461Z,50.90
2018-04-10T10:57:28.896Z,50.90
2018-04-10T10:59:56.364Z,51.10
2018-04-10T11:02:23.817Z,50.90
2018-04-10T11:04:51.267Z,51.10
2018-04-10T11:07:18.710Z,50.20
2018-04-10T11:09:46.148Z,50.50
2018-04-10T11:12:14.352Z,50.50
2018-04-10T11:14:41.800Z,50.50
2018-04-10T11:17:09.257Z,50.10
2018-04-10T11:19:36.693Z,50.30
2018-04-10T11:22:04.136Z,49.40
2018-04-10T11:24:32.350Z,49.90
2018-04-10T11:26:59.796Z,49.80
2018-04-10T11:29:27.248Z,49.50
2018-04-10T11:31:54.672Z,49.00
2018-04-10T11:34:22.889Z,49.10
2018-04-10T11:36:50.316Z,49.10
2018-04-10T11:39:17.760Z,48.30
2018-04-10T11:41:45.955Z,48.70
2018-04-10T11:44:13.404Z,48.60
2018-04-10T11:46:40.840Z,49.30
2018-04-10T11:49:09.060Z,49.60
2018-04-10T11:51:36.492Z,49.60
2018-04-10T11:54:03.936Z,48.40
2018-04-10T11:56:32.136Z,49.30
2018-04-10T11:58:59.589Z,49.20
2018-04-10T12:01:27.021Z,48.80
2018-04-10T12:03:55.226Z,48.50
2018-04-10T12:06:22.663Z,48.50
2018-04-10T12:08:50.112Z,48.90
2018-04-10T12:11:17.548Z,49.30
2018-04-10T12:13:45.768Z,48.70
2018-04-10T12:16:13.202Z,48.80
2018-04-10T12:18:40.674Z,48.90
2018-04-10T12:21:08.107Z,48.90
2018-04-10T12:23:35.544Z,49.00
2018-04-10T12:26:03.766Z,49.00
2018-04-10T12:28:31.198Z,49.00
2018-04-10T12:30:58.648Z,48.70
2018-04-10T12:33:26.079Z,48.60
2018-04-10T12:35:53.540Z,49.30
2018-04-10T12:38:21.750Z,48.50
2018-04-10T12:40:49.196Z,48.60
2018-04-10T12:43:16.630Z,48.20
2018-04-10T12:45:44.840Z,46.90
2018-04-10T12:48:12.281Z,46.80
2018-04-10T12:50:39.759Z,46.80
2018-04-10T12:53:07.192Z,47.20
2018-04-10T12:55:34.660Z,47.00
2018-04-10T12:58:02.093Z,46.60
2018-04-10T13:00:29.532Z,45.90
2018-04-10T13:02:57.742Z,45.70
2018-04-10T13:05:25.187Z,45.70
2018-04-10T13:07:53.447Z,45.80
2018-04-10T13:10:20.877Z,46.20
2018-04-10T13:12:48.323Z,46.00
2018-04-10T13:15:15.756Z,46.50
2018-04-10T13:17:43.193Z,46.90
2018-04-10T13:20:11.473Z,46.50
2018-04-10T13:22:38.911Z,46.80
2018-04-10T13:25:06.373Z,47.00
2018-04-10T13:27:33.830Z,47.20
2018-04-10T13:30:02.260Z,47.20
2018-04-10T13:32:29.691Z,47.40
2018-04-10T13:34:57.143Z,47.70
2018-04-10T13:37:24.592Z,48.50
2018-04-10T13:39:52.045Z,47.70
2018-04-10T13:42:19.487Z,47.90
2018-04-10T13:44:46.920Z,48.20
2018-04-10T13:47:15.125Z,47.40
2018-04-10T13:49:42.569Z,47.40
2018-04-10T13:52:10.005Z,47.30
2018-04-10T13:54:38.248Z,47.30
2018-04-10T13:57:05.687Z,47.10
2018-04-10T13:59:33.141Z,47.60
2018-04-10T14:02:00.595Z,47.30
2018-04-10T14:04:28.039Z,45.80
2018-04-10T14:06:55.484Z,45.50
2018-04-10T14:09:22.909Z,45.20
2018-04-10T14:11:51.125Z,44.80
2018-04-10T14:14:18.552Z,44.80
2018-04-10T14:16:45.996Z,45.10
2018-04-10T14:19:14.195Z,45.20
2018-04-10T14:21:41.628Z,45.10
2018-04-10T14:24:09.838Z,45.30
2018-04-10T14:26:37.289Z,45.30
2018-04-10T14:29:04.728Z,46.00
2018-04-10T14:31:32.171Z,45.50
2018-04-10T14:34:00.375Z,45.50
2018-04-10T14:36:27.828Z,45.60
2018-04-10T14:38:55.264Z,45.70
2018-04-10T14:41:22.709Z,45.60
2018-04-10T14:43:50.980Z,46.00
2018-04-10T14:46:19.186Z,45.70
2018-04-10T14:48:46.628Z,45.70
2018-04-10T14:51:14.078Z,46.20
2018-04-10T14:53:42.268Z,46.40
2018-04-10T14:56:09.712Z,46.40
2018-04-10T14:58:37.140Z,45.90
2018-04-10T15:01:05.365Z,46.20
2018-04-10T15:03:32.806Z,46.10
2018-04-10T15:06:00.269Z,45.20
2018-04-10T15:08:28.432Z,45.60
2018-04-10T15:10:55.982Z,45.50
2018-04-10T15:13:23.416Z,45.40
2018-04-10T15:15:51.630Z,45.60
2018-04-10T15:18:19.063Z,45.60
2018-04-10T15:20:46.520Z,45.80
2018-04-10T15:23:14.710Z,45.60
2018-04-10T15:25:42.173Z,45.60
2018-04-10T15:28:09.600Z,45.70
2018-04-10T15:30:37.051Z,45.90
2018-04-10T15:33:04.481Z,45.40
2018-04-10T15:35:31.920Z,45.00
2018-04-10T15:37:59.363Z,44.60
2018-04-10T15:40:26.805Z,44.50
2018-04-10T15:42:54.249Z,44.80
2018-04-10T15:45:21.697Z,45.20
2018-04-10T15:47:49.135Z,44.70
2018-04-10T15:50:17.371Z,45.20
2018-04-10T15:52:44.849Z,45.30
2018-04-10T15:55:12.275Z,45.60
2018-04-10T15:57:39.722Z,45.90
2018-04-10T16:00:07.172Z,46.50
2018-04-10T16:02:34.616Z,47.00
2018-04-10T16:05:02.057Z,47.00
2018-04-10T16:07:29.524Z,47.30
2018-04-10T16:09:56.972Z,47.50
2018-04-10T16:12:24.410Z,47.10
2018-04-10T16:14:52.619Z,47.30
2018-04-10T16:17:20.067Z,47.20
2018-04-10T16:19:47.515Z,47.60
2018-04-10T16:22:14.943Z,47.50
2018-04-10T16:24:43.140Z,48.20
2018-04-10T16:27:10.601Z,48.20
2018-04-10T16:29:40.004Z,48.20
2018-04-10T16:32:07.466Z,48.30
2018-04-10T16:34:34.882Z,48.60
2018-04-10T16:37:03.119Z,48.20
2018-04-10T16:39:30.559Z,48.20
2018-04-10T16:41:58.011Z,48.60
2018-04-10T16:44:25.476Z,48.50
2018-04-10T16:46:52.932Z,48.80
2018-04-10T16:49:20.381Z,48.80
2018-04-10T16:51:47.837Z,48.60
2018-04-10T16:54:15.284Z,48.60
2018-04-10T16:56:42.728Z,48.70
2018-04-10T16:59:10.172Z,49.00
2018-04-10T17:01:37.616Z,48.70
2018-04-10T17:04:05.832Z,49.20
2018-04-10T17:06:33.281Z,49.20
2018-04-10T17:09:00.704Z,49.50
2018-04-10T17:11:28.920Z,49.30
2018-04-10T17:13:56.367Z,49.30
2018-04-10T17:16:23.796Z,49.60
2018-04-10T17:18:51.231Z,49.80
2018-04-10T17:21:19.450Z,50.30
2018-04-10T17:23:46.921Z,50.30
2018-04-10T17:26:14.353Z,50.80
2018-04-10T17:28:41.804Z,51.10
2018-04-10T17:31:10.152Z,50.70
2018-04-10T17:33:38.385Z,50.80
2018-04-10T17:36:05.825Z,50.70
2018-04-10T17:38:33.284Z,50.80
2018-04-10T17:41:00.751Z,51.10
2018-04-10T17:43:28.201Z,51.70
2018-04-10T17:45:55.644Z,51.30
2018-04-10T17:48:23.072Z,51.50
2018-04-10T17:50:51.272Z,52.20
2018-04-10T17:53:18.712Z,52.20
2018-04-10T17:55:46.152Z,52.40
2018-04-10T17:58:14.368Z,52.80
2018-04-10T18:00:41.813Z,52.80
2018-04-10T18:03:09.256Z,53.10
2018-04-10T18:05:36.706Z,53.40
2018-04-10T18:08:04.150Z,53.60
2018-04-10T18:10:32.380Z,53.90
2018-04-10T18:12:59.828Z,53.90
2018-04-10T18:15:27.285Z,54.00
2018-04-10T18:17:54.719Z,54.50
2018-04-10T18:20:22.174Z,54.70
2018-04-10T18:22:49.626Z,54.90
2018-04-10T18:25:17.067Z,55.20
2018-04-10T18:27:44.511Z,55.30
2018-04-10T18:30:12.776Z,55.70
2018-04-10T18:32:40.202Z,55.70
2018-04-10T18:35:07.626Z,56.10
2018-04-10T18:37:35.083Z,56.30
2018-04-10T18:40:02.538Z,56.40
2018-04-10T18:42:29.972Z,56.70
2018-04-10T18:44:58.168Z,57.00
2018-04-10T18:47:25.623Z,57.00
2018-04-10T18:49:53.080Z,57.10
2018-04-10T18:52:20.500Z,57.10
2018-04-10T18:54:48.716Z,57.50
2018-04-10T18:57:16.158Z,57.40
2018-04-10T18:59:43.615Z,57.60
2018-04-10T19:02:11.040Z,57.80
2018-04-10T19:04:39.248Z,57.80
2018-04-10T19:07:06.699Z,57.80
2018-04-10T19:09:34.155Z,57.80
2018-04-10T19:12:01.582Z,57.80
2018-04-10T19:14:29.794Z,58.10
2018-04-10T19:16:57.244Z,58.10
2018-04-10T19:19:25.304Z,58.20
2018-04-10T19:21:52.739Z,58.20
2018-04-10T19:24:20.964Z,58.40
2018-04-10T19:26:48.388Z,58.20
2018-04-10T19:29:15.839Z,58.30
2018-04-10T19:31:43.271Z,58.60
2018-04-10T19:34:11.477Z,59.40
2018-04-10T19:36:38.906Z,58.70
2018-04-10T19:39:07.129Z,59.30
2018-04-10T19:41:34.560Z,59.30
2018-04-10T19:44:01.997Z,59.50
2018-04-10T19:46:30.206Z,59.70
2018-04-10T19:48:57.682Z,59.70
2018-04-10T19:51:25.876Z,59.90
2018-04-10T19:53:53.320Z,59.90
2018-04-10T19:56:20.760Z,59.80
2018-04-10T19:58:48.193Z,59.70
2018-04-10T20:01:15.636Z,59.70
2018-04-10T20:03:43.080Z,59.70
2018-04-10T20:06:11.304Z,59.60
2018-04-10T20:08:38.733Z,59.60
2018-04-10T20:11:06.176Z,59.60
2018-04-10T20:13:33.619Z,59.60
2018-04-10T20:16:01.064Z,59.60
2018-04-10T20:18:29.272Z,59.90
2018-04-10T20:20:56.744Z,59.90
2018-04-10T20:23:24.185Z,60.30
2018-04-10T20:25:51.668Z,60.80
2018-04-10T20:28:19.070Z,61.00
2018-04-10T20:30:47.281Z,61.10
2018-04-10T20:33:14.730Z,61.10
2018-04-10T20:35:42.158Z,61.10
2018-04-10T20:38:09.600Z,61.10
2018-04-10T20:40:38.065Z,61.00
2018-04-10T20:43:05.473Z,61.00
2018-04-10T20:45:32.920Z,61.10
2018-04-10T20:48:00.351Z,61.40
2018-04-10T20:50:28.564Z,61.70
2018-04-10T20:52:56.005Z,61.70
2018-04-10T20:55:23.455Z,61.90
2018-04-10T20:57:50.891Z,62.00
2018-04-10T21:00:19.112Z,62.20
2018-04-10T21:02:46.552Z,62.20
2018-04-10T21:05:14.080Z,62.40
2018-04-10T21:07:42.268Z,62.70
2018-04-10T21:10:09.712Z,62.70
2018-04-10T21:12:37.160Z,63.10
2018-04-10T21:15:05.375Z,63.70
2018-04-10T21:17:32.816Z,63.70
2018-04-10T21:20:00.253Z,63.80
2018-04-10T21:22:28.466Z,65.10
2018-04-10T21:24:55.912Z,65.10
2018-04-10T21:27:23.348Z,65.10
2018-04-10T21:29:50.780Z,64.90
2018-04-10T21:32:19.069Z,64.10
2018-04-10T21:34:47.270Z,63.80
2018-04-10T21:37:14.724Z,63.80
2018-04-10T21:39:42.154Z,63.00
2018-04-10T21:42:10.368Z,62.10
2018-04-10T21:44:38.590Z,61.10
2018-04-10T21:47:06.800Z,60.80
2018-04-10T21:49:34.243Z,60.10
2018-04-10T21:52:01.671Z,59.80
2018-04-10T21:54:29.892Z,59.40
2018-04-10T21:56:57.316Z,59.40
2018-04-10T21:59:24.749Z,59.60
2018-04-10T22:01:52.187Z,59.90
2018-04-10T22:04:19.643Z,59.90
2018-04-10T22:06:47.097Z,59.70
2018-04-10T22:09:14.538Z,59.70
2018-04-10T22:11:41.980Z,60.60
2018-04-10T22:14:09.427Z,60.80
2018-04-10T22:16:36.863Z,61.20
2018-04-10T22:19:04.302Z,61.80
2018-04-10T22:21:31.743Z,62.80
2018-04-10T22:23:59.236Z,62.80
2018-04-10T22:26:27.424Z,62.70
2018-04-10T22:28:54.858Z,62.50
2018-04-10T22:31:22.301Z,63.00
2018-04-10T22:33:50.480Z,64.10
2018-04-10T22:36:17.937Z,64.10
2018-04-10T22:38:45.376Z,65.40
2018-04-10T22:41:12.823Z,65.70
2018-04-10T22:43:40.284Z,65.50
2018-04-10T22:46:07.741Z,65.60
2018-04-10T22:48:35.936Z,66.90
2018-04-10T22:51:03.378Z,66.90
2018-04-10T22:53:30.822Z,67.00
2018-04-10T22:55:58.263Z,66.30
2018-04-10T22:58:26.470Z,66.10
2018-04-10T23:00:53.913Z,66.00
2018-04-10T23:03:21.346Z,66.20
2018-04-10T23:05:49.565Z,67.50
2018-04-10T23:08:17.035Z,67.50
2018-04-10T23:10:44.457Z,68.10
2018-04-10T23:13:11.904Z,68.40
2018-04-10T23:15:40.115Z,68.50
2018-04-10T23:18:07.560Z,68.50
2018-04-10T23:20:35.003Z,68.50
2018-04-10T23:23:03.219Z,69.40
2018-04-10T23:25:30.645Z,69.40
2018-04-10T23:27:58.096Z,69.80
2018-04-10T23:30:26.305Z,70.50
2018-04-10T23:32:53.792Z,70.40
2018-04-10T23:35:21.216Z,70.70
2018-04-10T23:37:48.677Z,71.70
2018-04-10T23:40:16.108Z,72.50
2018-04-10T23:42:43.547Z,72.30
2018-04-10T23:45:11.756Z,73.40
2018-04-10T23:47:39.212Z,73.40
2018-04-10T23:50:06.654Z,74.20
2018-04-10T23:52:34.117Z,74.50
2018-04-10T23:55:01.616Z,75.30
2018-04-10T23:57:29.749Z,76.50
2018-04-10T23:59:57.194Z,76.40
